Time;durP1;ratioP1;P1;durP2;ratioP2;P2;SDS_P1;SDS_P2;PMS_P1;PMS_P2;Temp;Humidity;BMP_temperature;BMP_pressure;BME280_temperature;BME280_humidity;BME280_pressure;Samples;Min_cycle;Max_cycle;Signal;HPM_P1;HPM_P2
2023/08/03 00:00:32;;;;;;;1.95;1.50;;;15.20;99.90;;;;;;4849095;29;20050;-56
2023/08/03 00:03:00;;;;;;;3.95;1.30;;;15.20;99.90;;;;;;4820267;29;20070;-56
2023/08/03 00:05:28;;;;;;;5.43;1.40;;;15.10;99.90;;;;;;4830731;29;20463;-56
2023/08/03 00:07:56;;;;;;;3.17;1.77;;;15.10;99.90;;;;;;4837397;29;20502;-56
2023/08/03 00:10:23;;;;;;;2.85;1.40;;;15.00;99.90;;;;;;4855554;29;20046;-56
2023/08/03 00:12:51;;;;;;;2.63;1.80;;;15.00;99.90;;;;;;4849001;29;20069;-56
2023/08/03 00:15:19;;;;;;;3.25;1.38;;;14.90;99.90;;;;;;4851230;29;20064;-56
2023/08/03 00:17:47;;;;;;;6.07;1.67;;;14.90;99.90;;;;;;4848440;29;20421;-56
2023/08/03 00:20:15;;;;;;;4.60;1.40;;;14.90;99.90;;;;;;4849073;29;20057;-56
2023/08/03 00:22:46;;;;;;;3.17;1.52;;;14.80;99.90;;;;;;4850070;29;20050;-55
2023/08/03 00:25:14;;;;;;;4.32;1.20;;;;;;;;;;4853886;29;20046;-56
2023/08/03 00:27:42;;;;;;;6.20;1.25;;;14.60;99.90;;;;;;4852238;29;20056;-56
2023/08/03 00:30:11;;;;;;;6.93;1.45;;;14.60;99.90;;;;;;4851533;29;20513;-56
2023/08/03 00:32:39;;;;;;;3.40;1.30;;;14.60;99.90;;;;;;4837300;29;20045;-56
2023/08/03 00:35:09;;;;;;;;;;;14.50;99.90;;;;;;4832515;29;20045;-56
2023/08/03 00:37:38;;;;;;;6.32;1.40;;;14.50;99.90;;;;;;4853904;29;19923;-57
2023/08/03 00:40:07;;;;;;;4.55;1.38;;;14.50;99.90;;;;;;4844468;29;20045;-56
2023/08/03 00:42:35;;;;;;;3.35;1.60;;;14.50;99.90;;;;;;4854089;29;20053;-56
2023/08/03 00:45:03;;;;;;;3.03;1.40;;;14.50;99.90;;;;;;4830140;29;20045;-55
2023/08/03 00:47:31;;;;;;;6.72;1.63;;;14.50;99.90;;;;;;4827979;29;20046;-56
2023/08/03 00:49:59;;;;;;;8.82;1.73;;;14.50;99.90;;;;;;4845367;29;20053;-57
2023/08/03 00:52:27;;;;;;;5.65;1.20;;;14.50;99.90;;;;;;4851646;29;20397;-57
2023/08/03 00:54:55;;;;;;;3.00;1.50;;;14.50;99.90;;;;;;4853614;29;20053;-57
2023/08/03 00:57:23;;;;;;;6.47;1.70;;;16.90;99.90;;;;;;4833947;29;20045;-57
2023/08/03 00:59:51;;;;;;;5.25;1.38;;;;;;;;;;4848074;29;20497;-56
2023/08/03 01:02:20;;;;;;;2.85;1.20;;;14.50;99.90;;;;;;4853795;29;20049;-57
2023/08/03 01:04:48;;;;;;;2.88;1.60;;;14.60;99.90;;;;;;4827446;29;20042;-57
2023/08/03 01:07:16;;;;;;;2.70;1.17;;;14.60;99.90;;;;;;4836910;29;20052;-56
2023/08/03 01:09:44;;;;;;;5.97;1.85;;;14.50;99.90;;;;;;4845306;29;20060;-57
2023/08/03 01:12:12;;;;;;;3.28;1.92;;;14.50;99.90;;;;;;4837243;29;20482;-58
2023/08/03 01:14:42;;;;;;;5.35;1.45;;;14.60;99.90;;;;;;4820295;29;20421;-56
2023/08/03 01:17:10;;;;;;;2.50;1.10;;;14.50;99.90;;;;;;4833201;29;20497;-56
2023/08/03 01:19:39;;;;;;;4.85;1.17;;;14.40;99.90;;;;;;4842828;29;21214;-58
2023/08/03 01:22:09;;;;;;;2.72;1.10;;;14.40;99.90;;;;;;4833942;29;20505;-56
2023/08/03 01:24:37;;;;;;;6.18;1.10;;;14.30;99.90;;;;;;4855160;29;20661;-57
2023/08/03 01:27:06;;;;;;;6.93;1.20;;;14.30;99.90;;;;;;4853969;29;20057;-57
2023/08/03 01:29:34;;;;;;;1.10;1.00;;;14.40;99.90;;;;;;4853021;29;20049;-56
2023/08/03 01:32:01;;;;;;;2.55;1.17;;;14.30;99.90;;;;;;4844102;29;20061;-56
2023/08/03 01:34:29;;;;;;;3.10;1.30;;;14.30;99.90;;;;;;4859818;29;20486;-57
2023/08/03 01:36:57;;;;;;;2.65;1.00;;;14.30;99.90;;;;;;4857118;29;20052;-57
2023/08/03 01:39:26;;;;;;;4.95;1.00;;;14.20;99.90;;;;;;4839902;29;20049;-56
2023/08/03 01:41:53;;;;;;;3.83;1.23;;;14.20;99.90;;;;;;4858948;29;20057;-56
2023/08/03 01:44:30;;;;;;;2.40;1.63;;;14.20;99.90;;;;;;4858434;29;20394;-56
2023/08/03 01:46:59;;;;;;;2.50;0.90;;;14.20;99.90;;;;;;4853307;29;20062;-58
2023/08/03 01:49:29;;;;;;;3.17;1.35;;;14.20;99.90;;;;;;4855182;29;20056;-58
2023/08/03 01:51:57;;;;;;;5.78;1.27;;;14.20;99.90;;;;;;4857613;29;20045;-58
2023/08/03 01:54:25;;;;;;;3.72;1.58;;;14.10;99.90;;;;;;4855812;29;20053;-59
2023/08/03 01:56:55;;;;;;;4.20;1.50;;;14.10;99.90;;;;;;4854991;29;20076;-58
2023/08/03 01:59:23;;;;;;;2.45;1.27;;;14.10;99.90;;;;;;4837183;29;20061;-59
2023/08/03 02:01:51;;;;;;;6.55;1.55;;;14.10;99.90;;;;;;4856338;29;20049;-58
2023/08/03 02:04:19;;;;;;;6.43;1.55;;;14.10;99.90;;;;;;4859170;29;20065;-58
2023/08/03 02:06:49;;;;;;;4.65;1.30;;;14.10;99.90;;;;;;4838479;29;20042;-58
2023/08/03 02:09:17;;;;;;;3.05;1.17;;;14.10;99.90;;;;;;4836013;29;20405;-58
2023/08/03 02:11:45;;;;;;;3.83;1.30;;;14.10;99.90;;;;;;4859313;29;20431;-59
2023/08/03 02:14:15;;;;;;;4.60;1.30;;;14.10;99.90;;;;;;4841330;29;20052;-57
2023/08/03 02:16:42;;;;;;;4.32;1.65;;;14.10;99.90;;;;;;4852198;29;20394;-58
2023/08/03 02:19:11;;;;;;;6.93;1.77;;;14.10;99.90;;;;;;4832574;29;20474;-59
2023/08/03 02:21:38;;;;;;;4.13;1.40;;;14.10;99.90;;;;;;4838947;29;20068;-59
2023/08/03 02:24:06;;;;;;;6.53;2.42;;;14.20;99.90;;;;;;4857182;29;20045;-56
2023/08/03 02:26:34;;;;;;;7.25;1.50;;;14.10;99.90;;;;;;4855437;29;20413;-56
2023/08/03 02:29:01;;;;;;;6.40;1.50;;;14.20;99.90;;;;;;4857018;29;20050;-56
2023/08/03 02:31:29;;;;;;;4.13;1.25;;;14.20;99.90;;;;;;4858941;29;20052;-56
2023/08/03 02:33:57;;;;;;;4.93;1.88;;;14.20;99.90;;;;;;4858803;29;20050;-56
2023/08/03 02:36:32;;;;;;;5.03;1.70;;;14.20;99.90;;;;;;4851995;29;20050;-55
2023/08/03 02:39:07;;;;;;;5.43;1.70;;;14.20;99.90;;;;;;4840106;29;20049;-57
2023/08/03 02:41:38;;;;;;;3.20;1.40;;;14.20;99.90;;;;;;4827794;29;20052;-56
2023/08/03 02:44:10;;;;;;;2.60;1.40;;;14.20;99.90;;;;;;4837369;29;20034;-57
2023/08/03 02:46:42;;;;;;;6.65;1.75;;;14.20;99.90;;;;;;4834222;29;20074;-56
2023/08/03 02:49:11;;;;;;;7.72;1.50;;;14.20;99.90;;;;;;4857198;29;20413;-56
2023/08/03 02:51:38;;;;;;;5.78;2.22;;;14.20;99.90;;;;;;4852871;29;20433;-56
2023/08/03 02:54:07;;;;;;;4.70;2.20;;;14.20;99.90;;;;;;4839791;29;20038;-56
2023/08/03 02:56:39;;;;;;;5.70;1.85;;;14.20;99.90;;;;;;4822858;29;20525;-56
2023/08/03 02:59:07;;;;;;;5.05;1.63;;;14.20;99.90;;;;;;4839613;29;20045;-56
2023/08/03 03:01:42;;;;;;;5.78;1.65;;;14.20;99.90;;;;;;4836028;29;20053;-56
2023/08/03 03:04:10;;;;;;;3.92;1.67;;;14.20;99.90;;;;;;4856186;29;20061;-57
2023/08/03 03:06:42;;;;;;;4.65;1.85;;;14.20;99.90;;;;;;4857128;29;20048;-55
2023/08/03 03:09:12;;;;;;;6.00;2.05;;;14.20;99.90;;;;;;4842348;29;20046;-57
2023/08/03 03:11:44;;;;;;;7.97;2.20;;;14.20;99.90;;;;;;4836687;29;20052;-57
2023/08/03 03:14:13;;;;;;;4.32;2.28;;;;;;;;;;4842125;29;20038;-58
2023/08/03 03:16:41;;;;;;;5.45;1.88;;;14.20;99.90;;;;;;4840385;29;20053;-58
2023/08/03 03:19:08;;;;;;;4.00;1.80;;;14.10;99.90;;;;;;4858692;29;20046;-58
2023/08/03 03:21:37;;;;;;;8.73;2.00;;;14.10;99.90;;;;;;4838846;29;20064;-58
2023/08/03 03:24:05;;;;;;;7.13;1.75;;;14.10;99.90;;;;;;4845564;29;20045;-57
2023/08/03 03:26:33;;;;;;;8.60;1.92;;;14.10;99.90;;;;;;4862003;29;20057;-56
2023/08/03 03:29:01;;;;;;;3.80;1.73;;;;;;;;;;4856969;29;20044;-56
2023/08/03 03:31:31;;;;;;;4.88;1.65;;;14.00;99.90;;;;;;4838770;29;20046;-56
2023/08/03 03:34:01;;;;;;;8.52;1.95;;;14.00;99.90;;;;;;4828288;29;20056;-55
2023/08/03 03:36:30;;;;;;;5.17;1.73;;;14.00;99.90;;;;;;4845433;29;20053;-56
2023/08/03 03:38:58;;;;;;;3.05;1.63;;;14.00;99.90;;;;;;4845493;29;20046;-56
2023/08/03 03:41:25;;;;;;;6.30;2.00;;;14.00;99.90;;;;;;4849986;29;20042;-58
2023/08/03 03:43:53;;;;;;;2.25;2.00;;;14.00;99.90;;;;;;4845305;29;20045;-56
2023/08/03 03:46:21;;;;;;;2.42;1.48;;;13.90;99.90;;;;;;4838969;29;20050;-56
2023/08/03 03:48:48;;;;;;;4.13;1.52;;;13.90;99.90;;;;;;4841510;29;20510;-56
2023/08/03 03:51:19;;;;;;;3.35;2.15;;;13.90;99.90;;;;;;4826275;29;20406;-56
2023/08/03 03:53:49;;;;;;;3.28;1.63;;;13.90;99.90;;;;;;4844856;29;20049;-56
2023/08/03 03:56:16;;;;;;;2.67;1.70;;;13.90;99.90;;;;;;4861700;29;20046;-56
2023/08/03 03:58:44;;;;;;;3.25;1.50;;;13.90;99.90;;;;;;4838272;29;20053;-57
2023/08/03 04:01:12;;;;;;;5.57;1.77;;;13.90;99.90;;;;;;4843226;29;20033;-56
2023/08/03 04:03:40;;;;;;;3.75;1.88;;;13.90;99.90;;;;;;4821951;29;20406;-57
2023/08/03 04:06:09;;;;;;;3.75;1.67;;;13.90;99.90;;;;;;4844969;29;20049;-56
2023/08/03 04:08:37;;;;;;;2.15;1.63;;;13.90;99.90;;;;;;4845079;29;20057;-56
2023/08/03 04:11:05;;;;;;;5.53;1.73;;;13.90;99.90;;;;;;4836496;29;20056;-56
2023/08/03 04:13:34;;;;;;;3.25;1.13;;;13.90;99.90;;;;;;4861248;29;20042;-56
2023/08/03 04:16:01;;;;;;;6.10;2.58;;;13.80;99.90;;;;;;4842616;29;20429;-57
2023/08/03 04:18:32;;;;;;;8.75;1.83;;;13.80;99.90;;;;;;4840786;29;20060;-56
2023/08/03 04:20:59;;;;;;;2.67;1.75;;;13.80;99.90;;;;;;4842169;29;20048;-58
2023/08/03 04:23:27;;;;;;;7.88;2.25;;;13.80;99.90;;;;;;4843254;29;20052;-58
2023/08/03 04:25:56;;;;;;;6.15;1.88;;;13.80;99.90;;;;;;4843951;29;20474;-59
2023/08/03 04:28:26;;;;;;;;;;;13.80;99.90;;;;;;4845011;29;20057;-59
2023/08/03 04:30:53;;;;;;;4.25;1.80;;;13.80;99.90;;;;;;4842662;29;19930;-58
2023/08/03 04:33:21;;;;;;;4.43;1.70;;;13.80;99.90;;;;;;4855055;29;20042;-58
2023/08/03 04:36:00;;;;;;;6.05;1.80;;;13.80;99.90;;;;;;4829706;29;20061;-59
2023/08/03 04:38:32;;;;;;;6.18;2.28;;;13.80;99.90;;;;;;4839397;29;20056;-58
2023/08/03 04:41:02;;;;;;;8.23;1.88;;;13.70;99.90;;;;;;4854028;29;20520;-58
2023/08/03 04:43:34;;;;;;;4.68;1.95;;;13.70;99.90;;;;;;4836959;29;20049;-58
2023/08/03 04:46:01;;;;;;;6.72;2.10;;;13.70;99.90;;;;;;4841786;29;20045;-57
2023/08/03 04:48:29;;;;;;;5.95;2.30;;;13.70;99.90;;;;;;4843214;29;20534;-58
2023/08/03 04:50:59;;;;;;;4.30;1.88;;;13.70;99.90;;;;;;4832140;29;20053;-58
2023/08/03 04:53:28;;;;;;;5.88;1.98;;;;;;;;;;4836591;29;20073;-58
2023/08/03 04:55:56;;;;;;;5.55;1.83;;;13.80;99.90;;;;;;4840727;29;20049;-57
2023/08/03 04:58:24;;;;;;;5.13;1.67;;;13.80;99.90;;;;;;4853192;29;19924;-56
2023/08/03 05:00:52;;;;;;;8.38;2.05;;;13.80;99.90;;;;;;4840815;29;20049;-56
2023/08/03 05:03:20;;;;;;;10.20;2.78;;;13.80;99.90;;;;;;4822067;29;20072;-57
2023/08/03 05:05:48;;;;;;;11.20;2.25;;;13.80;99.90;;;;;;4815294;29;20060;-56
2023/08/03 05:08:23;;;;;;;4.38;2.00;;;;;;;;;;4831320;29;20060;-57
2023/08/03 05:10:52;;;;;;;5.63;2.28;;;13.80;99.90;;;;;;4836022;29;20061;-61
2023/08/03 05:13:21;;;;;;;7.75;2.03;;;13.90;99.90;;;;;;4850223;29;20161;-56
2023/08/03 05:15:49;;;;;;;5.00;1.90;;;13.90;99.90;;;;;;4840395;29;20072;-56
2023/08/03 05:18:17;;;;;;;4.97;2.20;;;;;;;;;;4835529;29;20053;-56
2023/08/03 05:20:44;;;;;;;7.68;2.28;;;13.90;99.90;;;;;;4837683;29;20049;-56
2023/08/03 05:23:12;;;;;;;5.35;2.13;;;14.00;99.90;;;;;;4849864;29;20092;-56
2023/08/03 05:25:40;;;;;;;7.82;2.15;;;14.00;99.90;;;;;;4851683;29;20046;-56
2023/08/03 05:28:08;;;;;;;6.00;2.10;;;14.00;99.90;;;;;;4838207;29;20068;-56
2023/08/03 05:30:36;;;;;;;4.57;1.60;;;14.00;99.90;;;;;;4839910;29;20050;-56
2023/08/03 05:33:04;;;;;;;3.72;1.88;;;14.10;99.90;;;;;;4847521;29;20050;-55
2023/08/03 05:35:31;;;;;;;4.93;2.53;;;14.10;99.90;;;;;;4835414;29;20045;-56
2023/08/03 05:37:59;;;;;;;5.88;1.80;;;14.20;99.90;;;;;;4837528;29;20058;-56
2023/08/03 05:40:27;;;;;;;4.57;2.08;;;14.20;99.90;;;;;;4846205;29;20053;-61
2023/08/03 05:42:54;;;;;;;6.80;1.60;;;14.30;99.90;;;;;;4838814;29;20042;-57
2023/08/03 05:45:50;;;;;;;11.75;2.15;;;14.30;99.90;;;;;;4853344;29;20045;-57
2023/08/03 05:48:19;;;;;;;4.22;1.67;;;14.50;99.90;;;;;;4848832;29;20061;-56
2023/08/03 05:50:56;;;;;;;6.18;1.83;;;14.40;99.90;;;;;;4850224;29;20058;-56
2023/08/03 05:53:25;;;;;;;4.60;1.67;;;14.50;99.90;;;;;;4853956;29;20046;-56
2023/08/03 05:55:52;;;;;;;5.75;1.70;;;14.60;99.90;;;;;;4850735;29;20153;-56
2023/08/03 05:58:38;;;;;;;2.97;1.90;;;14.60;99.90;;;;;;4819474;29;20065;-56
2023/08/03 06:01:10;;;;;;;9.25;2.03;;;14.70;99.90;;;;;;4850197;29;20041;-56
2023/08/03 06:03:42;;;;;;;3.55;1.90;;;14.80;99.90;;;;;;4848745;29;20053;-56
2023/08/03 06:06:13;;;;;;;2.97;2.00;;;14.80;99.90;;;;;;4830110;29;20529;-57
2023/08/03 06:08:54;;;;;;;5.07;1.88;;;14.80;99.90;;;;;;4851565;29;20045;-57
2023/08/03 06:11:22;;;;;;;3.42;2.20;;;14.70;99.90;;;;;;4848716;29;20052;-59
2023/08/03 06:13:53;;;;;;;4.82;1.90;;;14.70;99.90;;;;;;4853212;29;20494;-57
2023/08/03 06:16:23;;;;;;;5.43;2.30;;;14.60;99.90;;;;;;4839652;29;20046;-58
2023/08/03 06:18:54;;;;;;;5.65;1.95;;;14.60;99.90;;;;;;4849560;29;20049;-57
2023/08/03 06:21:26;;;;;;;5.72;3.15;;;14.40;99.90;;;;;;4841942;29;20435;-56
2023/08/03 06:23:57;;;;;;;6.13;2.22;;;14.50;99.90;;;;;;4814476;29;20446;-56
2023/08/03 06:26:27;;;;;;;3.40;2.00;;;14.40;99.90;;;;;;4846985;29;20510;-56
2023/08/03 06:28:55;;;;;;;3.22;2.00;;;14.30;99.90;;;;;;4830786;29;20057;-56
2023/08/03 06:31:28;;;;;;;4.70;2.17;;;14.30;99.90;;;;;;4824414;29;20065;-56
2023/08/03 06:33:57;;;;;;;7.20;1.95;;;14.30;99.90;;;;;;4828123;29;20041;-56
2023/08/03 06:36:26;;;;;;;3.97;1.65;;;14.30;99.90;;;;;;4843882;29;20414;-57
2023/08/03 06:38:55;;;;;;;6.22;2.00;;;14.30;99.90;;;;;;4852172;29;20054;-57
2023/08/03 06:41:24;;;;;;;4.40;1.63;;;14.30;99.90;;;;;;4842139;29;20050;-56
2023/08/03 06:43:53;;;;;;;5.45;1.80;;;14.30;99.90;;;;;;4844778;29;20402;-56
2023/08/03 06:46:22;;;;;;;4.83;2.03;;;14.30;99.90;;;;;;4848474;29;20057;-56
2023/08/03 06:48:50;;;;;;;6.22;1.65;;;14.40;99.90;;;;;;4851604;29;20056;-56
2023/08/03 06:51:21;;;;;;;4.10;1.85;;;14.40;99.90;;;;;;4851023;29;20049;-56
2023/08/03 06:53:49;;;;;;;2.95;1.40;;;14.50;99.90;;;;;;4840936;29;20413;-57
2023/08/03 06:56:17;;;;;;;3.33;1.70;;;14.60;99.90;;;;;;4856007;29;20045;-56
2023/08/03 06:58:45;;;;;;;4.28;1.40;;;14.70;99.90;;;;;;4849074;29;20407;-56
2023/08/03 07:01:13;;;;;;;2.88;1.52;;;14.90;99.90;;;;;;4854996;29;20052;-56
2023/08/03 07:03:41;;;;;;;4.15;1.70;;;14.90;99.90;;;;;;4814233;29;20057;-56
2023/08/03 07:06:09;;;;;;;4.45;1.75;;;15.10;99.90;;;;;;4848055;29;20042;-57
2023/08/03 07:08:40;;;;;;;4.13;1.80;;;15.20;99.90;;;;;;4835702;29;20054;-57
2023/08/03 07:11:08;;;;;;;4.95;1.60;;;15.40;99.90;;;;;;4839013;29;20078;-57
2023/08/03 07:13:36;;;;;;;9.90;2.25;;;15.70;99.90;;;;;;4849100;29;20041;-56
2023/08/03 07:16:08;;;;;;;7.00;2.20;;;15.70;99.90;;;;;;4846893;29;20061;-56
2023/08/03 07:18:36;;;;;;;7.63;1.58;;;15.90;99.90;;;;;;4846927;29;20053;-57
2023/08/03 07:21:06;;;;;;;3.90;1.50;;;15.80;99.90;;;;;;4840650;29;20042;-57
2023/08/03 07:23:34;;;;;;;1.53;1.27;;;15.90;99.90;;;;;;4844014;29;20049;-58
2023/08/03 07:26:02;;;;;;;3.35;1.35;;;16.00;99.90;;;;;;4853892;29;20046;-57
2023/08/03 07:28:29;;;;;;;2.58;1.42;;;16.10;99.90;;;;;;4853024;29;20042;-57
2023/08/03 07:30:57;;;;;;;4.32;1.63;;;16.20;99.90;;;;;;4848598;29;20397;-57
2023/08/03 07:33:28;;;;;;;2.47;1.55;;;16.20;99.90;;;;;;4853172;29;20738;-56
2023/08/03 07:35:56;;;;;;;3.58;1.25;;;16.30;99.90;;;;;;4827370;29;20046;-56
2023/08/03 07:38:24;;;;;;;4.97;1.20;;;16.40;99.90;;;;;;4822969;29;20050;-57
2023/08/03 07:40:52;;;;;;;1.42;1.10;;;16.50;99.90;;;;;;4849729;29;20065;-57
2023/08/03 07:43:20;;;;;;;5.88;1.60;;;16.50;99.90;;;;;;4813427;29;20057;-56
2023/08/03 07:45:48;;;;;;;3.15;1.05;;;16.60;99.90;;;;;;4832319;29;20053;-56
2023/08/03 07:48:18;;;;;;;2.20;1.30;;;16.70;99.90;;;;;;4844319;29;20060;-57
2023/08/03 07:50:46;;;;;;;2.70;1.48;;;16.80;99.90;;;;;;4846549;29;20049;-56
2023/08/03 07:53:14;;;;;;;6.65;1.35;;;16.80;99.90;;;;;;4838064;29;20045;-57
2023/08/03 07:55:42;;;;;;;3.13;1.52;;;16.80;99.90;;;;;;4833129;29;20674;-57
2023/08/03 07:58:11;;;;;;;5.90;1.35;;;16.90;99.90;;;;;;4841291;29;20057;-57
2023/08/03 08:00:39;;;;;;;2.47;1.50;;;16.80;99.90;;;;;;4805249;29;20065;-57
2023/08/03 08:03:07;;;;;;;4.25;1.70;;;16.90;99.90;;;;;;4834455;29;20516;-58
2023/08/03 08:05:35;;;;;;;5.43;2.22;;;16.90;99.90;;;;;;4838537;29;20042;-57
2023/08/03 08:08:03;;;;;;;3.63;2.35;;;16.90;99.90;;;;;;4847412;29;20054;-56
2023/08/03 08:10:30;;;;;;;7.30;4.53;;;17.00;99.90;;;;;;4854050;29;20048;-57
2023/08/03 08:12:58;;;;;;;3.83;2.50;;;17.10;99.90;;;;;;4846031;29;20490;-57
2023/08/03 08:15:25;;;;;;;4.32;2.28;;;17.20;99.90;;;;;;4850097;29;20049;-57
2023/08/03 08:17:53;;;;;;;4.70;2.03;;;17.30;99.90;;;;;;4852518;29;20058;-57
2023/08/03 08:20:21;;;;;;;4.28;1.67;;;17.40;99.90;;;;;;4857939;29;20049;-56
2023/08/03 08:22:49;;;;;;;2.22;1.48;;;17.40;99.90;;;;;;4850136;29;20519;-56
2023/08/03 08:25:17;;;;;;;4.32;1.50;;;17.50;99.90;;;;;;4844827;29;20050;-56
2023/08/03 08:27:45;;;;;;;3.22;1.63;;;17.70;99.90;;;;;;4847120;29;20050;-57
2023/08/03 08:30:12;;;;;;;3.53;1.27;;;17.80;99.90;;;;;;4830987;29;20050;-57
2023/08/03 08:32:41;;;;;;;2.72;1.10;;;;;;;;;;4837598;29;20049;-57
2023/08/03 08:35:08;;;;;;;5.75;1.40;;;18.00;99.90;;;;;;4830135;29;20076;-57
2023/08/03 08:37:36;;;;;;;4.07;1.20;;;18.00;99.90;;;;;;4851100;29;20057;-57
2023/08/03 08:40:05;;;;;;;2.33;1.30;;;18.10;99.90;;;;;;4820164;29;20923;-57
2023/08/03 08:42:34;;;;;;;2.17;1.40;;;18.20;99.90;;;;;;4846167;29;20045;-57
2023/08/03 08:45:02;;;;;;;4.07;1.60;;;18.20;99.90;;;;;;4841329;29;20099;-57
2023/08/03 08:47:30;;;;;;;2.13;1.30;;;18.40;99.90;;;;;;4842484;29;20053;-57
2023/08/03 08:49:58;;;;;;;2.85;1.42;;;18.50;99.90;;;;;;4856460;29;20538;-57
2023/08/03 08:52:29;;;;;;;1.83;1.50;;;18.60;99.90;;;;;;4851908;29;20038;-58
2023/08/03 08:55:14;;;;;;;2.08;1.38;;;18.70;99.90;;;;;;4853674;29;20046;-58
2023/08/03 08:58:02;;;;;;;4.63;1.73;;;18.80;99.90;;;;;;4843605;29;20490;-56
2023/08/03 09:00:43;;;;;;;3.83;1.88;;;18.80;99.90;;;;;;4856407;29;20064;-57
2023/08/03 09:03:12;;;;;;;3.05;1.40;;;18.80;99.90;;;;;;4831683;29;20050;-56
2023/08/03 09:05:40;;;;;;;3.63;1.20;;;18.80;99.90;;;;;;4848811;29;20068;-57
2023/08/03 09:08:18;;;;;;;2.67;1.55;;;18.90;99.90;;;;;;4834545;29;20422;-57
2023/08/03 09:10:54;;;;;;;2.88;1.25;;;19.00;99.90;;;;;;4840734;29;20061;-57
2023/08/03 09:13:29;;;;;;;3.28;1.52;;;19.20;99.90;;;;;;4830781;29;20074;-57
2023/08/03 09:15:57;;;;;;;5.28;1.90;;;19.30;99.90;;;;;;4849797;29;20406;-57
2023/08/03 09:18:27;;;;;;;2.85;1.73;;;19.40;99.90;;;;;;4853186;29;20053;-57
2023/08/03 09:21:15;;;;;;;4.25;1.92;;;19.40;99.90;;;;;;4855237;29;20053;-57
2023/08/03 09:23:46;;;;;;;3.67;1.70;;;19.50;99.90;;;;;;4819828;29;20474;-57
2023/08/03 09:26:24;;;;;;;3.58;1.77;;;19.50;99.90;;;;;;4849499;29;20060;-56
2023/08/03 09:28:55;;;;;;;3.80;1.33;;;19.50;99.90;;;;;;4830260;29;20394;-58
2023/08/03 09:31:25;;;;;;;5.18;1.77;;;19.40;99.90;;;;;;4856674;29;20045;-57
2023/08/03 09:34:07;;;;;;;4.28;1.58;;;19.40;99.90;;;;;;4827197;29;20053;-59
2023/08/03 09:36:46;;;;;;;7.25;1.48;;;19.30;99.90;;;;;;4844396;29;20050;-58
2023/08/03 09:39:34;;;;;;;4.03;1.45;;;19.10;99.90;;;;;;4853938;29;20049;-59
2023/08/03 09:42:05;;;;;;;3.22;2.38;;;19.10;99.90;;;;;;4856029;29;20398;-57
2023/08/03 09:44:33;;;;;;;4.40;1.73;;;18.90;99.90;;;;;;4851602;29;20064;-58
2023/08/03 09:47:02;;;;;;;2.60;1.33;;;18.80;99.90;;;;;;4848547;29;20124;-57
2023/08/03 09:49:31;;;;;;;2.95;1.35;;;18.60;99.90;;;;;;4855891;29;20042;-58
2023/08/03 09:52:05;;;;;;;3.75;1.80;;;18.40;99.90;;;;;;4832490;29;20042;-59
2023/08/03 09:54:56;;;;;;;3.13;1.13;;;18.30;99.90;;;;;;4852888;29;20054;-57
2023/08/03 09:57:32;;;;;;;5.85;1.80;;;18.00;99.90;;;;;;4845666;29;20060;-58
2023/08/03 10:00:06;;;;;;;3.95;1.63;;;17.70;99.90;;;;;;4843025;29;20046;-59
2023/08/03 10:02:56;;;;;;;5.18;1.67;;;17.70;99.90;;;;;;4835082;29;20049;-58
2023/08/03 10:05:26;;;;;;;8.23;2.17;;;17.50;99.90;;;;;;4852051;29;20053;-57
2023/08/03 10:07:57;;;;;;;;;;;17.20;99.90;;;;;;4831117;29;20479;-56
2023/08/03 10:10:27;;;;;;;5.18;1.80;;;16.90;99.90;;;;;;4831608;29;19928;-56
2023/08/03 10:13:01;;;;;;;2.28;1.60;;;16.80;99.90;;;;;;4847238;29;20042;-56
2023/08/03 10:15:30;;;;;;;5.50;2.42;;;16.80;99.90;;;;;;4835260;29;20054;-56
2023/08/03 10:17:59;;;;;;;4.95;2.13;;;16.70;99.90;;;;;;4838644;29;20041;-57
2023/08/03 10:20:27;;;;;;;6.85;2.13;;;16.70;99.90;;;;;;4846526;29;20414;-57
2023/08/03 10:23:16;;;;;;;3.13;2.10;;;16.70;99.90;;;;;;4841464;29;20050;-57
2023/08/03 10:25:55;;;;;;;4.43;2.25;;;16.70;99.90;;;;;;4852950;29;20045;-57
2023/08/03 10:28:44;;;;;;;6.03;3.35;;;16.80;99.90;;;;;;4836423;29;20057;-58
2023/08/03 10:31:19;;;;;;;9.47;4.80;;;16.80;99.90;;;;;;4818258;29;20054;-57
2023/08/03 10:33:49;;;;;;;21.80;10.88;;;17.10;99.90;;;;;;4853393;29;20312;-56
2023/08/03 10:36:33;;;;;;;9.65;6.47;;;17.30;99.90;;;;;;4837231;29;20050;-56
2023/08/03 10:39:03;;;;;;;6.57;4.82;;;17.30;99.90;;;;;;4839550;29;20050;-58
2023/08/03 10:41:36;;;;;;;6.68;2.80;;;17.80;99.90;;;;;;4848604;29;20053;-56
2023/08/03 10:44:12;;;;;;;6.78;2.90;;;17.80;99.90;;;;;;4821171;29;20055;-56
2023/08/03 10:46:42;;;;;;;7.60;2.80;;;18.00;99.90;;;;;;4843159;29;20042;-56
2023/08/03 10:49:27;;;;;;;;;;;18.40;99.90;;;;;;4839759;29;20049;-57
2023/08/03 10:52:16;;;;;;;9.57;3.03;;;18.50;99.90;;;;;;4848606;29;19931;-56
2023/08/03 10:54:45;;;;;;;8.38;4.03;;;18.70;99.90;;;;;;4834382;29;20046;-57
2023/08/03 10:57:24;;;;;;;9.45;3.33;;;18.80;99.90;;;;;;4828726;29;20197;-57
2023/08/03 10:59:55;;;;;;;8.90;3.92;;;19.00;99.90;;;;;;4850306;29;20049;-57
2023/08/03 11:02:35;;;;;;;8.07;3.50;;;19.00;99.90;;;;;;4842721;29;20050;-57
2023/08/03 11:05:06;;;;;;;7.32;3.30;;;18.90;99.90;;;;;;4849009;29;20061;-59
2023/08/03 11:07:41;;;;;;;11.23;3.20;;;18.60;99.90;;;;;;4853449;29;20049;-57
2023/08/03 11:10:11;;;;;;;5.50;2.80;;;18.60;99.90;;;;;;4837318;29;20051;-57
2023/08/03 11:12:44;;;;;;;5.88;2.30;;;18.50;99.90;;;;;;4846227;29;20057;-56
2023/08/03 11:15:17;;;;;;;7.90;2.85;;;18.50;99.90;;;;;;4837248;29;20068;-56
2023/08/03 11:17:49;;;;;;;7.22;3.20;;;18.50;99.90;;;;;;4854022;29;20395;-57
2023/08/03 11:20:18;;;;;;;8.93;2.95;;;18.40;99.90;;;;;;4820213;29;20066;-56
2023/08/03 11:22:46;;;;;;;9.45;3.40;;;18.30;99.90;;;;;;4842996;29;20057;-56
2023/08/03 11:25:18;;;;;;;8.23;3.42;;;18.20;99.90;;;;;;4837699;29;20058;-56
2023/08/03 11:27:46;;;;;;;8.00;2.88;;;18.10;99.90;;;;;;4845964;29;20054;-56
2023/08/03 11:30:18;;;;;;;6.45;2.45;;;18.00;99.90;;;;;;4855289;29;20053;-56
2023/08/03 11:32:45;;;;;;;7.82;2.80;;;17.90;99.90;;;;;;4830750;29;20060;-56
2023/08/03 11:35:13;;;;;;;13.38;3.20;;;17.80;99.90;;;;;;4851122;29;20045;-56
2023/08/03 11:37:41;;;;;;;14.40;3.97;;;17.70;99.90;;;;;;4831617;29;20064;-56
2023/08/03 11:40:09;;;;;;;15.40;3.90;;;17.60;99.90;;;;;;4827122;29;20050;-57
2023/08/03 11:42:39;;;;;;;13.45;4.15;;;17.50;99.90;;;;;;4844918;29;20038;-57
2023/08/03 11:45:07;;;;;;;6.38;3.30;;;17.50;99.90;;;;;;4852040;29;20061;-56
2023/08/03 11:47:46;;;;;;;11.00;3.95;;;17.40;99.90;;;;;;4835772;29;20064;-58
2023/08/03 11:50:17;;;;;;;22.70;4.35;;;17.50;99.90;;;;;;4844987;29;20042;-57
2023/08/03 11:52:46;;;;;;;10.75;3.75;;;17.50;99.90;;;;;;4855383;29;20502;-57
2023/08/03 11:55:27;;;;;;;15.52;3.83;;;17.60;99.90;;;;;;4856731;29;20256;-56
2023/08/03 11:58:10;;;;;;;11.27;3.03;;;17.80;99.90;;;;;;4853908;29;20054;-57
2023/08/03 12:00:42;;;;;;;9.63;3.80;;;17.90;99.90;;;;;;4848734;29;20058;-57
2023/08/03 12:03:17;;;;;;;15.75;3.20;;;17.90;99.90;;;;;;4846370;29;20386;-57
2023/08/03 12:05:53;;;;;;;8.63;2.88;;;17.90;99.90;;;;;;4850329;29;20049;-57
2023/08/03 12:08:46;;;;;;;8.35;3.42;;;17.80;99.90;;;;;;4833059;29;20066;-57
2023/08/03 12:11:19;;;;;;;10.93;3.03;;;17.70;99.90;;;;;;4834410;29;20058;-58
2023/08/03 12:13:51;;;;;;;7.32;3.20;;;17.70;99.90;;;;;;4855358;29;20061;-57
2023/08/03 12:16:21;;;;;;;9.35;3.15;;;17.50;99.90;;;;;;4854789;29;20060;-57
2023/08/03 12:18:49;;;;;;;11.07;3.10;;;17.50;99.90;;;;;;4849744;29;20068;-57
2023/08/03 12:21:18;;;;;;;10.45;3.60;;;;;;;;;;4847100;29;20053;-57
2023/08/03 12:23:46;;;;;;;4.47;2.97;;;17.70;99.90;;;;;;4853220;29;20049;-57
2023/08/03 12:26:13;;;;;;;15.23;2.90;;;17.70;99.90;;;;;;4841256;29;20062;-57
2023/08/03 12:28:41;;;;;;;7.18;3.00;;;18.00;99.90;;;;;;4849631;29;20712;-57
2023/08/03 12:31:09;;;;;;;9.30;3.15;;;18.00;99.90;;;;;;4822153;29;20065;-57
2023/08/03 12:33:37;;;;;;;14.27;3.88;;;18.20;99.90;;;;;;4847673;29;20041;-57
2023/08/03 12:36:06;;;;;;;13.30;3.40;;;;;;;;;;4855026;29;20048;-57
2023/08/03 12:38:33;;;;;;;8.55;2.58;;;18.40;99.90;;;;;;4852574;29;20076;-56
2023/08/03 12:41:01;;;;;;;6.63;2.42;;;20.30;99.90;;;;;;4851600;29;20042;-57
2023/08/03 12:43:29;;;;;;;12.15;3.13;;;18.40;99.90;;;;;;4849080;29;20050;-56
2023/08/03 12:45:57;;;;;;;6.75;2.50;;;18.30;99.90;;;;;;4841116;29;20052;-56
2023/08/03 12:48:25;;;;;;;13.25;3.38;;;18.10;99.90;;;;;;4850013;29;20502;-58
2023/08/03 12:50:53;;;;;;;10.60;2.78;;;;;;;;;;4857462;29;20588;-57
2023/08/03 12:53:20;;;;;;;7.68;2.22;;;17.90;99.90;;;;;;4851068;29;20056;-58
2023/08/03 12:55:48;;;;;;;7.82;2.45;;;17.90;99.90;;;;;;4857647;29;20060;-58
2023/08/03 12:58:16;;;;;;;9.27;3.58;;;17.90;99.90;;;;;;4853827;29;20053;-58
2023/08/03 13:00:45;;;;;;;6.85;3.10;;;18.00;99.90;;;;;;4857473;29;20053;-57
2023/08/03 13:03:13;;;;;;;6.47;2.67;;;18.00;99.90;;;;;;4822316;29;20041;-58
2023/08/03 13:05:41;;;;;;;8.23;2.95;;;18.10;99.90;;;;;;4856697;29;20061;-57